Douglas, Isle of Man
Current Conditions -  °F | °C
As of 12:50 PM on Wednesday 28 Jan 2015 (Local Time) from EGNS Reporting Station
Rain Showers Rain Showers  
Wind Chill: 24°   Ceiling: Unl
Heat Index: 37°   Visibility: 6mi
Dew Point: 32°   Wind: 36mph
Humidity: 81%   Direction: 290°WNW
Pressure: 29.47"   Gusts: 51mph
Location:  54.15°N, 4.48°W
Report Text: EGNS 281150Z 29031G44KT 9999 7000W -SHRA FEW012 SCT017 03/00 Q0998 NOSIG
Loading
Personal Weather Stations






























Interactive Weather Map New forecast layout! Learn more

10-Day Weather Forecast

Advertisements
Track Severe Weather on mobile